createdAt,value
2018-04-07T00:01:54.114Z,68.64
2018-04-07T00:04:22.838Z,68.97
2018-04-07T00:06:52.361Z,68.67
2018-04-07T00:09:21.784Z,68.83
2018-04-07T00:11:50.508Z,68.81
2018-04-07T00:14:19.547Z,68.73
2018-04-07T00:16:48.118Z,68.96
2018-04-07T00:19:16.843Z,68.82
2018-04-07T00:21:45.598Z,69.23
2018-04-07T00:24:14.316Z,68.69
2018-04-07T00:26:42.942Z,69.41
2018-04-07T00:29:11.659Z,69.36
2018-04-07T00:31:40.281Z,68.75
2018-04-07T00:34:09.103Z,68.68
2018-04-07T00:36:37.824Z,69.01
2018-04-07T00:39:06.628Z,68.86
2018-04-07T00:41:35.370Z,69.13
2018-04-07T00:44:03.990Z,69.33
2018-04-07T00:46:32.633Z,69.06
2018-04-07T00:49:01.334Z,68.92
2018-04-07T00:51:29.969Z,69.33
2018-04-07T00:53:58.653Z,69.42
2018-04-07T00:56:27.301Z,69.63
2018-04-07T00:58:57.032Z,69.14
2018-04-07T01:01:25.648Z,69.03
2018-04-07T01:03:54.321Z,69.05
2018-04-07T01:06:22.991Z,68.83
2018-04-07T01:08:51.711Z,69.02
2018-04-07T01:11:20.323Z,69.00
2018-04-07T01:13:48.986Z,69.13
2018-04-07T01:16:17.679Z,68.92
2018-04-07T01:18:46.306Z,69.01
2018-04-07T01:21:14.948Z,68.87
2018-04-07T01:23:44.144Z,69.02
2018-04-07T01:26:12.774Z,69.08
2018-04-07T01:28:41.485Z,69.45
2018-04-07T01:31:10.209Z,68.99
2018-04-07T01:33:38.838Z,69.03
2018-04-07T01:36:07.553Z,69.02
2018-04-07T01:38:36.274Z,68.84
2018-04-07T01:41:04.912Z,68.95
2018-04-07T01:43:33.513Z,68.51
2018-04-07T01:46:02.240Z,68.76
2018-04-07T01:48:30.961Z,68.65
2018-04-07T01:50:59.682Z,68.42
2018-04-07T01:53:28.405Z,68.49
2018-04-07T01:55:57.125Z,68.54
2018-04-07T01:58:25.848Z,68.43
2018-04-07T02:00:54.428Z,68.40
2018-04-07T02:03:23.189Z,68.69
2018-04-07T02:05:51.832Z,69.14
2018-04-07T02:08:20.535Z,68.63
2018-04-07T02:10:49.256Z,68.85
2018-04-07T02:13:17.977Z,68.77
2018-04-07T02:15:46.631Z,68.81
2018-04-07T02:18:15.328Z,69.03
2018-04-07T02:20:44.042Z,69.27
2018-04-07T02:23:12.766Z,69.07
2018-04-07T02:25:41.489Z,69.08
2018-04-07T02:28:10.308Z,69.28
2018-04-07T02:30:38.946Z,69.19
2018-04-07T02:33:08.563Z,68.97
2018-04-07T02:35:37.191Z,69.04
2018-04-07T02:38:05.880Z,69.51
2018-04-07T02:40:34.415Z,69.03
2018-04-07T02:43:03.153Z,68.90
2018-04-07T02:45:31.869Z,69.11
2018-04-07T02:48:15.258Z,69.11
2018-04-07T02:50:43.959Z,69.60
2018-04-07T02:53:13.684Z,69.50
2018-04-07T02:55:42.316Z,69.69
2018-04-07T02:58:11.029Z,69.60
2018-04-07T03:00:39.616Z,69.46
2018-04-07T03:03:08.270Z,69.73
2018-04-07T03:05:36.993Z,69.88
2018-04-07T03:08:05.615Z,70.02
2018-04-07T03:10:34.235Z,69.78
2018-04-07T03:13:02.857Z,69.70
2018-04-07T03:15:31.582Z,70.18
2018-04-07T03:18:00.271Z,69.84
2018-04-07T03:20:29.025Z,70.21
2018-04-07T03:22:57.809Z,70.34
2018-04-07T03:25:26.570Z,69.94
2018-04-07T03:27:55.292Z,70.91
2018-04-07T03:30:24.382Z,70.08
2018-04-07T03:32:53.757Z,70.15
2018-04-07T03:35:22.457Z,69.82
2018-04-07T03:37:51.198Z,69.84
2018-04-07T03:40:19.832Z,69.57
2018-04-07T03:42:48.557Z,70.15
2018-04-07T03:45:17.162Z,69.82
2018-04-07T03:47:45.993Z,69.68
2018-04-07T03:50:14.610Z,69.64
2018-04-07T03:52:43.341Z,69.72
2018-04-07T03:55:11.954Z,69.91
2018-04-07T03:57:40.670Z,70.15
2018-04-07T04:00:09.311Z,69.81
2018-04-07T04:02:38.014Z,69.35
2018-04-07T04:05:06.736Z,69.21
2018-04-07T04:07:36.863Z,69.45
2018-04-07T04:10:05.485Z,69.31
2018-04-07T04:12:34.811Z,69.29
2018-04-07T04:15:03.429Z,69.67
2018-04-07T04:17:32.051Z,69.43
2018-04-07T04:20:00.649Z,69.59
2018-04-07T04:22:29.394Z,69.58
2018-04-07T04:24:58.116Z,69.70
2018-04-07T04:27:26.762Z,69.49
2018-04-07T04:29:55.460Z,69.58
2018-04-07T04:32:24.183Z,69.66
2018-04-07T04:34:52.905Z,69.39
2018-04-07T04:37:21.532Z,69.37
2018-04-07T04:39:51.753Z,69.54
2018-04-07T04:42:20.475Z,69.46
2018-04-07T04:44:49.109Z,69.42
2018-04-07T04:47:17.692Z,69.10
2018-04-07T04:49:46.438Z,68.79
2018-04-07T04:52:15.160Z,68.40
2018-04-07T04:54:43.789Z,68.42
2018-04-07T04:57:12.490Z,67.93
2018-04-07T04:59:41.147Z,67.84
2018-04-07T05:02:09.771Z,67.71
2018-04-07T05:04:38.672Z,67.55
2018-04-07T05:07:07.391Z,67.48
2018-04-07T05:09:36.013Z,67.42
2018-04-07T05:12:04.740Z,67.39
2018-04-07T05:14:33.363Z,67.12
2018-04-07T05:17:02.180Z,66.98
2018-04-07T05:19:30.899Z,67.25
2018-04-07T05:21:59.623Z,67.00
2018-04-07T05:24:28.262Z,66.54
2018-04-07T05:26:56.916Z,66.62
2018-04-07T05:29:25.511Z,66.45
2018-04-07T05:31:54.238Z,66.11
2018-04-07T05:34:22.931Z,65.94
2018-04-07T05:36:51.570Z,65.80
2018-04-07T05:39:20.375Z,66.01
2018-04-07T05:41:49.100Z,65.62
2018-04-07T05:44:18.223Z,65.45
2018-04-07T05:46:46.839Z,65.28
2018-04-07T05:49:15.563Z,65.28
2018-04-07T05:51:44.286Z,64.94
2018-04-07T05:54:13.167Z,64.36
2018-04-07T05:56:41.834Z,64.29
2018-04-07T05:59:10.454Z,63.99
2018-04-07T06:01:39.174Z,63.99
2018-04-07T06:04:07.897Z,64.05
2018-04-07T06:06:36.508Z,63.60
2018-04-07T06:09:06.054Z,63.73
2018-04-07T06:11:34.683Z,63.32
2018-04-07T06:14:03.298Z,63.26
2018-04-07T06:16:32.009Z,62.59
2018-04-07T06:19:00.827Z,62.60
2018-04-07T06:21:29.537Z,62.19
2018-04-07T06:23:58.172Z,61.96
2018-04-07T06:26:26.890Z,61.62
2018-04-07T06:28:55.614Z,61.22
2018-04-07T06:31:25.063Z,60.98
2018-04-07T06:33:53.743Z,60.35
2018-04-07T06:36:22.390Z,59.41
2018-04-07T06:38:51.104Z,59.47
2018-04-07T06:41:19.829Z,59.15
2018-04-07T06:43:48.551Z,59.55
2018-04-07T06:46:17.275Z,58.80
2018-04-07T06:48:45.829Z,59.14
2018-04-07T06:51:14.586Z,59.42
2018-04-07T06:53:43.235Z,59.36
2018-04-07T06:56:11.781Z,58.96
2018-04-07T06:58:40.376Z,58.73
2018-04-07T07:01:09.099Z,58.03
2018-04-07T07:03:37.821Z,58.03
2018-04-07T07:06:06.487Z,58.38
2018-04-07T07:08:35.183Z,58.07
2018-04-07T07:11:04.090Z,57.25
2018-04-07T07:13:32.716Z,57.25
2018-04-07T07:16:01.429Z,57.09
2018-04-07T07:18:30.173Z,57.46
2018-04-07T07:20:58.974Z,57.11
2018-04-07T07:23:27.698Z,57.30
2018-04-07T07:25:56.418Z,56.85
2018-04-07T07:28:25.037Z,55.94
2018-04-07T07:30:53.829Z,55.91
2018-04-07T07:33:22.583Z,56.49
2018-04-07T07:35:51.287Z,56.32
2018-04-07T07:38:20.730Z,57.00
2018-04-07T07:40:49.371Z,56.61
2018-04-07T07:43:18.072Z,55.73
2018-04-07T07:45:46.797Z,55.88
2018-04-07T07:48:17.232Z,55.79
2018-04-07T07:50:45.842Z,56.06
2018-04-07T07:53:14.465Z,55.93
2018-04-07T07:55:43.192Z,55.68
2018-04-07T07:58:11.911Z,54.63
2018-04-07T08:00:40.549Z,54.14
2018-04-07T08:03:09.151Z,53.79
2018-04-07T08:05:37.874Z,53.72
2018-04-07T08:08:06.507Z,54.00
2018-04-07T08:10:35.316Z,53.93
2018-04-07T08:13:04.037Z,54.40
2018-04-07T08:15:33.763Z,53.26
2018-04-07T08:18:02.486Z,52.54
2018-04-07T08:20:31.560Z,52.32
2018-04-07T08:23:04.130Z,52.57
2018-04-07T08:25:33.275Z,51.95
2018-04-07T08:28:01.901Z,51.45
2018-04-07T08:30:30.713Z,51.51
2018-04-07T08:33:00.136Z,51.64
2018-04-07T08:35:29.738Z,50.47
2018-04-07T08:37:58.392Z,50.52
2018-04-07T08:40:27.103Z,50.73
2018-04-07T08:42:55.724Z,51.03
2018-04-07T08:45:24.499Z,50.36
2018-04-07T08:47:53.252Z,50.05
2018-04-07T08:50:21.992Z,50.35
2018-04-07T08:52:50.531Z,48.95
2018-04-07T08:55:19.118Z,48.62
2018-04-07T08:57:47.774Z,48.11
2018-04-07T09:00:16.556Z,47.87
2018-04-07T09:02:45.249Z,47.51
2018-04-07T09:05:15.132Z,47.46
2018-04-07T09:07:43.847Z,47.89
2018-04-07T09:10:12.570Z,46.48
2018-04-07T09:12:41.129Z,46.09
2018-04-07T09:15:09.919Z,45.15
2018-04-07T09:17:38.703Z,42.64
2018-04-07T09:20:07.355Z,40.64
2018-04-07T09:22:35.985Z,37.78
2018-04-07T09:25:04.607Z,38.65
2018-04-07T09:27:33.156Z,37.08
2018-04-07T09:30:01.810Z,35.65
2018-04-07T09:32:30.563Z,34.44
2018-04-07T09:35:00.990Z,33.42
2018-04-07T09:37:29.545Z,33.12
2018-04-07T09:39:58.337Z,33.20
2018-04-07T09:42:27.083Z,33.48
2018-04-07T09:44:55.736Z,32.51
2018-04-07T09:47:24.499Z,33.26
2018-04-07T09:49:53.225Z,33.12
2018-04-07T09:52:21.847Z,33.56
2018-04-07T09:54:50.528Z,34.52
2018-04-07T09:57:19.288Z,33.49
2018-04-07T09:59:48.013Z,33.22
2018-04-07T10:02:20.523Z,34.19
2018-04-07T10:04:49.168Z,33.75
2018-04-07T10:07:17.703Z,33.62
2018-04-07T10:09:46.409Z,36.19
2018-04-07T10:12:15.034Z,36.79
2018-04-07T10:14:43.742Z,38.12
2018-04-07T10:17:12.569Z,36.54
2018-04-07T10:19:41.296Z,38.49
2018-04-07T10:22:09.971Z,39.03
2018-04-07T10:24:38.610Z,38.81
2018-04-07T10:27:07.273Z,38.88
2018-04-07T10:29:35.946Z,38.12
2018-04-07T10:32:04.705Z,37.27
2018-04-07T10:34:33.428Z,38.16
2018-04-07T10:37:02.150Z,39.39
2018-04-07T10:39:30.871Z,39.53
2018-04-07T10:41:59.497Z,38.88
2018-04-07T10:44:28.217Z,38.93
2018-04-07T10:46:57.538Z,39.26
2018-04-07T10:49:26.260Z,39.10
2018-04-07T10:51:54.983Z,38.41
2018-04-07T10:54:23.705Z,37.17
2018-04-07T10:56:52.331Z,36.19
2018-04-07T10:59:21.047Z,35.77
2018-04-07T11:01:49.772Z,35.78
2018-04-07T11:04:18.351Z,36.85
2018-04-07T11:06:47.012Z,36.48
2018-04-07T11:09:15.635Z,37.02
2018-04-07T11:11:44.357Z,35.55
2018-04-07T11:14:13.178Z,34.53
2018-04-07T11:16:41.732Z,34.73
2018-04-07T11:19:10.426Z,34.60
2018-04-07T11:21:38.998Z,34.62
2018-04-07T11:24:07.578Z,35.50
2018-04-07T11:26:36.387Z,35.29
2018-04-07T11:29:05.211Z,35.44
2018-04-07T11:31:33.930Z,36.36
2018-04-07T11:34:02.652Z,36.78
2018-04-07T11:36:31.382Z,35.64
2018-04-07T11:39:00.104Z,34.95
2018-04-07T11:41:28.817Z,34.99
2018-04-07T11:43:57.544Z,32.51
2018-04-07T11:46:26.136Z,33.27
2018-04-07T11:48:55.384Z,31.82
2018-04-07T11:51:24.177Z,30.92
2018-04-07T11:53:52.802Z,28.73
2018-04-07T11:56:21.554Z,30.30
2018-04-07T11:58:50.254Z,30.69
2018-04-07T12:01:18.871Z,31.58
2018-04-07T12:03:47.615Z,32.50
2018-04-07T12:06:16.441Z,33.28
2018-04-07T12:08:45.158Z,35.12
2018-04-07T12:11:13.882Z,36.27
2018-04-07T12:13:42.518Z,37.60
2018-04-07T12:16:11.611Z,38.54
2018-04-07T12:18:40.347Z,38.71
2018-04-07T12:21:08.988Z,39.56
2018-04-07T12:23:38.392Z,39.42
2018-04-07T12:26:07.037Z,40.16
2018-04-07T12:28:35.639Z,40.55
2018-04-07T12:31:04.325Z,40.64
2018-04-07T12:33:32.980Z,41.18
2018-04-07T12:36:01.901Z,41.50
2018-04-07T12:38:30.535Z,41.14
2018-04-07T12:40:59.446Z,41.21
2018-04-07T12:43:28.086Z,41.96
2018-04-07T12:45:56.788Z,41.71
2018-04-07T12:48:25.410Z,42.28
2018-04-07T12:50:54.133Z,42.44
2018-04-07T12:53:23.958Z,42.44
2018-04-07T12:55:52.585Z,42.36
2018-04-07T12:58:22.687Z,41.88
2018-04-07T13:00:51.428Z,41.78
2018-04-07T13:03:20.151Z,41.26
2018-04-07T13:05:48.872Z,41.45
2018-04-07T13:08:17.593Z,41.91
2018-04-07T13:10:46.214Z,42.42
2018-04-07T13:13:14.942Z,43.03
2018-04-07T13:15:43.574Z,42.86
2018-04-07T13:18:12.130Z,42.80
2018-04-07T13:20:40.802Z,42.28
2018-04-07T13:23:09.433Z,42.51
2018-04-07T13:25:38.054Z,43.60
2018-04-07T13:28:06.766Z,43.23
2018-04-07T13:30:35.505Z,42.92
2018-04-07T13:33:04.122Z,42.48
2018-04-07T13:35:32.735Z,42.56
2018-04-07T13:38:01.455Z,43.30
2018-04-07T13:40:30.074Z,43.25
2018-04-07T13:42:58.796Z,43.02
2018-04-07T13:45:27.416Z,42.50
2018-04-07T13:47:56.143Z,42.53
2018-04-07T13:50:24.865Z,42.19
2018-04-07T13:52:53.485Z,42.30
2018-04-07T13:55:22.204Z,42.32
2018-04-07T13:57:50.844Z,42.61
2018-04-07T14:00:19.649Z,42.25
2018-04-07T14:02:48.270Z,42.11
2018-04-07T14:05:16.993Z,42.16
2018-04-07T14:07:45.626Z,42.21
2018-04-07T14:10:14.859Z,42.53
2018-04-07T14:12:43.667Z,42.82
2018-04-07T14:15:12.286Z,42.81
2018-04-07T14:17:41.002Z,43.24
2018-04-07T14:20:09.727Z,43.04
2018-04-07T14:22:38.262Z,42.24
2018-04-07T14:25:07.074Z,42.20
2018-04-07T14:27:35.700Z,42.05
2018-04-07T14:30:04.511Z,41.75
2018-04-07T14:32:33.180Z,42.03
2018-04-07T14:35:01.855Z,41.68
2018-04-07T14:37:30.577Z,41.77
2018-04-07T14:40:00.595Z,42.07
2018-04-07T14:42:29.324Z,42.09
2018-04-07T14:44:59.254Z,42.04
2018-04-07T14:47:27.884Z,40.91
2018-04-07T14:49:56.773Z,41.50
2018-04-07T14:52:25.535Z,41.87
2018-04-07T14:54:54.346Z,41.26
2018-04-07T14:57:23.147Z,41.56
2018-04-07T14:59:51.885Z,41.51
2018-04-07T15:02:20.807Z,41.59
2018-04-07T15:04:49.529Z,41.26
2018-04-07T15:07:18.291Z,41.74
2018-04-07T15:09:47.058Z,41.70
2018-04-07T15:12:16.095Z,41.86
2018-04-07T15:14:44.826Z,41.77
2018-04-07T15:17:13.668Z,41.52
2018-04-07T15:19:42.364Z,41.68
2018-04-07T15:22:11.286Z,42.00
2018-04-07T15:24:40.004Z,41.61
2018-04-07T15:27:08.939Z,42.26
2018-04-07T15:29:37.548Z,42.64
2018-04-07T15:32:06.336Z,43.50
2018-04-07T15:34:35.201Z,43.64
2018-04-07T15:37:04.114Z,43.78
2018-04-07T15:39:32.738Z,43.72
2018-04-07T15:42:01.463Z,43.47
2018-04-07T15:44:30.095Z,43.62
2018-04-07T15:46:59.010Z,44.09
2018-04-07T15:49:27.625Z,44.45
2018-04-07T15:51:56.451Z,44.84
2018-04-07T15:54:25.070Z,44.73
2018-04-07T15:56:53.688Z,44.71
2018-04-07T15:59:22.516Z,45.48
2018-04-07T16:01:51.235Z,45.99
2018-04-07T16:04:19.955Z,46.45
2018-04-07T16:06:48.847Z,47.03
2018-04-07T16:09:17.616Z,46.79
2018-04-07T16:11:46.637Z,47.12
2018-04-07T16:14:15.322Z,47.76
2018-04-07T16:16:44.165Z,48.22
2018-04-07T16:19:13.607Z,48.15
2018-04-07T16:21:42.358Z,48.22
2018-04-07T16:24:11.135Z,48.25
2018-04-07T16:26:39.774Z,49.17
2018-04-07T16:29:08.491Z,49.88
2018-04-07T16:31:37.303Z,50.57
2018-04-07T16:34:06.030Z,51.07
2018-04-07T16:36:34.701Z,50.88
2018-04-07T16:39:03.565Z,51.05
2018-04-07T16:41:32.389Z,51.58
2018-04-07T16:44:01.310Z,52.25
2018-04-07T16:46:30.232Z,52.72
2018-04-07T16:48:59.543Z,53.32
2018-04-07T16:51:28.288Z,53.43
2018-04-07T16:53:57.001Z,53.75
2018-04-07T16:56:25.830Z,53.58
2018-04-07T16:58:54.501Z,53.86
2018-04-07T17:01:23.278Z,53.92
2018-04-07T17:03:51.888Z,54.50
2018-04-07T17:06:20.776Z,54.82
2018-04-07T17:08:49.542Z,54.98
2018-04-07T17:11:18.455Z,55.44
2018-04-07T17:13:47.193Z,55.55
2018-04-07T17:16:16.012Z,55.82
2018-04-07T17:18:44.924Z,55.23
2018-04-07T17:21:13.627Z,55.21
2018-04-07T17:23:42.378Z,55.73
2018-04-07T17:26:11.900Z,55.96
2018-04-07T17:28:40.768Z,55.84
2018-04-07T17:31:09.635Z,56.08
2018-04-07T17:33:38.461Z,56.76
2018-04-07T17:36:07.045Z,57.04
2018-04-07T17:38:35.808Z,56.79
2018-04-07T17:41:04.523Z,56.79
2018-04-07T17:43:33.344Z,56.75
2018-04-07T17:46:02.170Z,57.13
2018-04-07T17:48:31.090Z,57.60
2018-04-07T17:50:59.814Z,57.60
2018-04-07T17:53:28.736Z,57.47
2018-04-07T17:55:57.614Z,57.73
2018-04-07T17:58:26.289Z,57.72
2018-04-07T18:00:55.122Z,57.84
2018-04-07T18:03:23.925Z,57.38
2018-04-07T18:05:52.745Z,57.46
2018-04-07T18:08:21.593Z,57.65
2018-04-07T18:10:50.589Z,57.94
2018-04-07T18:13:19.441Z,58.40
2018-04-07T18:15:48.135Z,58.48
2018-04-07T18:18:17.058Z,58.58
2018-04-07T18:20:45.882Z,58.70
2018-04-07T18:23:14.602Z,58.74
2018-04-07T18:25:43.492Z,58.62
2018-04-07T18:28:12.448Z,59.31
2018-04-07T18:30:42.082Z,59.28
2018-04-07T18:33:10.994Z,59.35
2018-04-07T18:35:39.718Z,59.63
2018-04-07T18:38:08.638Z,59.85
2018-04-07T18:40:37.475Z,59.87
2018-04-07T18:43:06.195Z,60.21
2018-04-07T18:45:35.706Z,59.94
2018-04-07T18:48:04.592Z,60.10
2018-04-07T18:50:33.264Z,60.45
2018-04-07T18:53:01.973Z,60.79
2018-04-07T18:55:30.794Z,61.16
2018-04-07T18:57:59.521Z,61.01
2018-04-07T19:00:28.338Z,61.30
2018-04-07T19:02:57.161Z,61.24
2018-04-07T19:05:25.911Z,61.41
2018-04-07T19:07:54.633Z,61.59
2018-04-07T19:10:23.333Z,61.80
2018-04-07T19:12:52.060Z,62.04
2018-04-07T19:15:20.978Z,62.22
2018-04-07T19:17:49.868Z,62.19
2018-04-07T19:20:18.716Z,62.42
2018-04-07T19:22:47.479Z,62.81
2018-04-07T19:25:16.158Z,62.95
2018-04-07T19:27:44.866Z,63.45
2018-04-07T19:30:13.679Z,63.60
2018-04-07T19:32:42.500Z,63.67
2018-04-07T19:35:11.155Z,63.92
2018-04-07T19:37:39.988Z,64.72
2018-04-07T19:40:08.815Z,64.54
2018-04-07T19:42:37.614Z,64.81
2018-04-07T19:45:06.507Z,65.20
2018-04-07T19:47:35.218Z,65.88
2018-04-07T19:50:04.106Z,66.18
2018-04-07T19:52:32.904Z,66.28
2018-04-07T19:55:01.579Z,66.99
2018-04-07T19:57:30.289Z,67.39
2018-04-07T19:59:59.571Z,67.34
2018-04-07T20:02:28.294Z,67.40
2018-04-07T20:04:56.925Z,67.53
2018-04-07T20:07:25.707Z,67.77
2018-04-07T20:09:54.302Z,68.00
2018-04-07T20:12:22.980Z,67.97
2018-04-07T20:14:51.901Z,67.76
2018-04-07T20:17:20.624Z,67.55
2018-04-07T20:19:49.523Z,67.67
2018-04-07T20:22:18.267Z,67.88
2018-04-07T20:24:47.191Z,68.14
2018-04-07T20:27:15.814Z,68.22
2018-04-07T20:29:44.710Z,68.52
2018-04-07T20:32:13.569Z,68.87
2018-04-07T20:34:42.381Z,69.18
2018-04-07T20:37:11.038Z,69.45
2018-04-07T20:39:39.823Z,70.05
2018-04-07T20:42:20.610Z,70.20
2018-04-07T20:44:49.421Z,70.37
2018-04-07T20:47:18.182Z,70.43
2018-04-07T20:49:47.016Z,70.39
2018-04-07T20:52:16.377Z,70.18
2018-04-07T20:54:45.241Z,70.59
2018-04-07T20:57:14.019Z,71.24
2018-04-07T20:59:42.950Z,70.73
2018-04-07T21:02:11.667Z,71.05
2018-04-07T21:04:40.466Z,71.23
2018-04-07T21:07:09.122Z,70.77
2018-04-07T21:09:37.846Z,71.34
2018-04-07T21:12:06.757Z,71.79
2018-04-07T21:14:35.475Z,71.98
2018-04-07T21:17:04.376Z,71.83
2018-04-07T21:19:33.018Z,71.83
2018-04-07T21:22:01.844Z,72.29
2018-04-07T21:24:31.278Z,72.63
2018-04-07T21:27:00.012Z,72.65
2018-04-07T21:29:30.310Z,72.93
2018-04-07T21:31:58.953Z,73.10
2018-04-07T21:34:27.779Z,73.43
2018-04-07T21:36:56.582Z,73.40
2018-04-07T21:39:25.447Z,73.46
2018-04-07T21:41:54.135Z,73.82
2018-04-07T21:44:23.047Z,74.33
2018-04-07T21:46:51.874Z,75.16
2018-04-07T21:49:20.793Z,76.02
2018-04-07T21:51:49.715Z,76.05
2018-04-07T21:54:18.437Z,75.84
2018-04-07T21:56:47.262Z,75.80
2018-04-07T21:59:15.880Z,75.74
2018-04-07T22:01:45.700Z,75.84
2018-04-07T22:04:14.429Z,75.63
2018-04-07T22:06:43.215Z,75.85
2018-04-07T22:09:12.176Z,76.32
2018-04-07T22:11:40.998Z,76.64
2018-04-07T22:14:09.816Z,76.84
2018-04-07T22:16:38.641Z,76.85
2018-04-07T22:19:07.330Z,77.00
2018-04-07T22:21:36.085Z,77.13
2018-04-07T22:24:04.703Z,76.96
2018-04-07T22:26:33.634Z,76.47
2018-04-07T22:29:02.651Z,76.65
2018-04-07T22:31:31.330Z,76.77
2018-04-07T22:34:00.296Z,76.76
2018-04-07T22:36:29.040Z,76.84
2018-04-07T22:38:58.140Z,77.04
2018-04-07T22:41:26.983Z,77.13
2018-04-07T22:43:55.784Z,77.21
2018-04-07T22:46:24.509Z,77.66
2018-04-07T22:48:53.998Z,77.80
2018-04-07T22:51:22.758Z,78.13
2018-04-07T22:53:51.778Z,78.62
2018-04-07T22:56:20.497Z,78.68
2018-04-07T22:58:49.139Z,79.03
2018-04-07T23:01:17.844Z,79.09
2018-04-07T23:03:46.566Z,79.08
2018-04-07T23:06:15.488Z,79.19
2018-04-07T23:08:44.111Z,79.37
2018-04-07T23:11:12.928Z,79.83
2018-04-07T23:13:41.666Z,79.71
2018-04-07T23:16:11.457Z,79.42
2018-04-07T23:18:40.213Z,79.33
2018-04-07T23:21:10.648Z,79.31
2018-04-07T23:23:39.348Z,79.60
2018-04-07T23:26:08.179Z,79.83
2018-04-07T23:28:36.991Z,79.40
2018-04-07T23:31:05.715Z,79.12
2018-04-07T23:33:34.450Z,79.28
2018-04-07T23:36:03.140Z,79.26
2018-04-07T23:38:31.784Z,79.51
2018-04-07T23:41:00.602Z,79.56
2018-04-07T23:43:29.529Z,79.83
2018-04-07T23:45:58.351Z,79.98
2018-04-07T23:48:27.069Z,80.40
2018-04-07T23:50:55.999Z,80.34
2018-04-07T23:53:24.625Z,79.84
2018-04-07T23:55:53.498Z,79.92
2018-04-07T23:58:22.257Z,79.75
